Weippe, Idaho
Current Conditions -  °F | °C
As of 7:55 PM on Saturday 20 Dec 2014 (Local Time) from KGIC Reporting Station
Overcast Overcast  
Wind Chill: 37°   Ceiling: 4100
Heat Index: 41°   Visibility: 10mi
Dew Point: 34°   Wind: 6mph
Humidity: 77%   Direction: 230°SW
Pressure: 29.72"   Gusts: 24mph
Location:  46.38°N, 115.94°W
Report Text: KGIC 210355Z AUTO 23005G21KT 10SM OVC041 05/01 A2972 RMK AO1 P0001 T00480010
Loading
Personal Weather Stations






























Interactive Weather Map New forecast layout! Learn more

10-Day Weather Forecast

Advertisements
Track Severe Weather on mobile